Time;durP1;ratioP1;P1;durP2;ratioP2;P2;SDS_P1;SDS_P2;PMS_P1;PMS_P2;Temp;Humidity;BMP_temperature;BMP_pressure;BME280_temperature;BME280_humidity;BME280_pressure;Samples;Min_cycle;Max_cycle;Signal;HPM_P1;HPM_P2
2023/06/10 00:00:48;;;;;;;;;;;23.50;51.00;;;;;;5072939;28;19977;-29
2023/06/10 00:03:14;;;;;;;;;;;23.50;51.00;;;;;;5072945;28;19919;-28
2023/06/10 00:05:40;;;;;;;;;;;23.50;51.10;;;;;;5072728;28;19920;-30
2023/06/10 00:08:10;;;;;;;;;;;23.50;51.10;;;;;;5072606;28;20308;-27
2023/06/10 00:10:37;;;;;;;;;;;23.50;51.20;;;;;;5072894;28;19999;-32
2023/06/10 00:13:03;;;;;;;;;;;23.40;51.10;;;;;;5072604;28;19912;-25
2023/06/10 00:15:29;;;;;;;;;;;23.40;51.20;;;;;;5072826;28;20256;-31
2023/06/10 00:17:55;;;;;;;;;;;23.40;51.20;;;;;;5072356;28;19920;-27
2023/06/10 00:20:23;;;;;;;;;;;23.40;51.30;;;;;;5072472;28;19978;-29
2023/06/10 00:22:49;;;;;;;;;;;23.30;51.20;;;;;;5072449;28;19919;-30
2023/06/10 00:25:14;;;;;;;;;;;23.20;51.20;;;;;;5072357;28;19912;-30
2023/06/10 00:27:40;;;;;;;;;;;23.20;51.30;;;;;;5072795;28;20394;-27
2023/06/10 00:30:06;;;;;;;;;;;23.20;51.30;;;;;;5072550;28;19913;-26
2023/06/10 00:32:35;;;;;;;;;;;23.10;51.30;;;;;;5072593;28;19940;-32
2023/06/10 00:35:01;;;;;;;;;;;23.10;51.30;;;;;;5072119;28;20038;-31
2023/06/10 00:37:28;;;;;;;;;;;23.10;51.40;;;;;;5072131;28;19947;-30
2023/06/10 00:39:54;;;;;;;;;;;23.00;51.40;;;;;;5071026;28;19912;-28
2023/06/10 00:42:19;;;;;;;;;;;22.90;51.30;;;;;;5071996;28;19917;-31
2023/06/10 00:44:45;;;;;;;;;;;22.90;51.40;;;;;;5071952;28;19944;-31
2023/06/10 00:47:10;;;;;;;;;;;22.90;51.40;;;;;;5072041;28;19916;-28
2023/06/10 00:49:36;;;;;;;;;;;22.80;51.30;;;;;;5071976;28;19919;-33
2023/06/10 00:52:03;;;;;;;;;;;22.80;51.40;;;;;;5070466;28;20344;-31
2023/06/10 00:54:29;;;;;;;;;;;22.70;51.30;;;;;;5072230;28;19912;-29
2023/06/10 00:56:54;;;;;;;;;;;22.70;51.40;;;;;;5071967;28;20304;-30
2023/06/10 00:59:20;;;;;;;;;;;22.70;51.40;;;;;;5070985;28;20007;-28
2023/06/10 01:01:46;;;;;;;;;;;22.70;51.40;;;;;;5071804;28;19916;-28
2023/06/10 01:04:12;;;;;;;;;;;22.60;51.40;;;;;;5072043;28;20386;-31
2023/06/10 01:06:55;;;;;;;;;;;22.60;51.40;;;;;;5071945;28;19920;-31
2023/06/10 01:09:39;;;;;;;;;;;22.50;51.40;;;;;;5071860;28;19912;-29
2023/06/10 01:12:10;;;;;;;;;;;22.50;51.40;;;;;;5072103;28;19912;-32
2023/06/10 01:14:35;;;;;;;;;;;22.40;51.40;;;;;;5071802;28;20003;-29
2023/06/10 01:17:03;;;;;;;;;;;22.40;51.40;;;;;;5071734;28;19952;-27
2023/06/10 01:19:30;;;;;;;;;;;22.40;51.40;;;;;;5071823;28;19996;-27
2023/06/10 01:22:00;;;;;;;;;;;22.30;51.40;;;;;;5071503;28;19923;-29
2023/06/10 01:24:28;;;;;;;;;;;22.30;51.40;;;;;;5072001;28;19912;-32
2023/06/10 01:26:57;;;;;;;;;;;22.30;51.50;;;;;;5072268;28;20477;-26
2023/06/10 01:29:28;;;;;;;;;;;22.20;51.40;;;;;;5071598;28;19912;-30
2023/06/10 01:32:03;;;;;;;;;;;22.20;51.50;;;;;;5071792;28;19919;-31
2023/06/10 01:34:30;;;;;;;;;;;22.20;51.50;;;;;;5071910;28;19920;-26
2023/06/10 01:36:57;;;;;;;;;;;22.10;51.60;;;;;;5071595;28;19958;-27
2023/06/10 01:39:23;;;;;;;;;;;22.10;51.60;;;;;;5071445;28;19912;-29
2023/06/10 01:41:49;;;;;;;;;;;22.10;51.70;;;;;;5071337;28;19923;-28
2023/06/10 01:44:19;;;;;;;;;;;22.00;51.70;;;;;;5071941;28;19913;-27
2023/06/10 01:46:45;;;;;;;;;;;22.00;51.70;;;;;;5071426;28;19962;-29
2023/06/10 01:49:10;;;;;;;;;;;21.90;51.70;;;;;;5071416;28;20341;-31
2023/06/10 01:51:36;;;;;;;;;;;21.90;51.80;;;;;;5071539;28;19924;-32
2023/06/10 01:54:01;;;;;;;;;;;21.90;51.90;;;;;;5071703;28;19954;-27
2023/06/10 01:56:26;;;;;;;;;;;21.80;51.90;;;;;;5072398;28;19919;-30
2023/06/10 01:58:54;;;;;;;;;;;21.80;52.00;;;;;;5075174;28;19912;-34
2023/06/10 02:01:20;;;;;;;;;;;21.80;52.00;;;;;;5075329;28;19916;-26
2023/06/10 02:03:45;;;;;;;;;;;21.70;52.10;;;;;;5074988;28;19912;-28
2023/06/10 02:06:11;;;;;;;;;;;21.70;52.10;;;;;;5074898;28;19927;-26
2023/06/10 02:08:36;;;;;;;;;;;21.70;52.20;;;;;;5075117;28;20264;-27
2023/06/10 02:11:02;;;;;;;;;;;21.60;52.20;;;;;;5074767;28;20272;-28
2023/06/10 02:13:27;;;;;;;;;;;21.60;52.40;;;;;;5073594;28;19993;-28
2023/06/10 02:15:54;;;;;;;;;;;21.60;52.50;;;;;;5074981;28;19913;-30
2023/06/10 02:18:20;;;;;;;;;;;21.60;52.60;;;;;;5075038;28;19923;-31
2023/06/10 02:20:46;;;;;;;;;;;21.50;52.60;;;;;;5075237;28;19920;-31
2023/06/10 02:23:11;;;;;;;;;;;21.50;52.60;;;;;;5074697;28;19919;-28
2023/06/10 02:25:37;;;;;;;;;;;21.40;52.80;;;;;;5074689;28;19959;-31
2023/06/10 02:28:03;;;;;;;;;;;21.40;53.00;;;;;;5074966;28;19912;-32
2023/06/10 02:30:28;;;;;;;;;;;21.40;53.10;;;;;;5074929;28;19912;-30
2023/06/10 02:32:56;;;;;;;;;;;21.30;53.10;;;;;;5074381;28;19969;-29
2023/06/10 02:35:22;;;;;;;;;;;21.30;53.30;;;;;;5074753;28;20300;-31
2023/06/10 02:37:47;;;;;;;;;;;21.30;53.40;;;;;;5074770;28;19966;-31
2023/06/10 02:40:13;;;;;;;;;;;21.20;53.40;;;;;;5074356;28;19919;-33
2023/06/10 02:42:39;;;;;;;;;;;21.20;53.50;;;;;;5074475;28;20007;-35
2023/06/10 02:45:04;;;;;;;;;;;21.20;53.60;;;;;;5074712;28;19919;-31
2023/06/10 02:47:30;;;;;;;;;;;21.20;53.60;;;;;;5074313;28;20003;-32
2023/06/10 02:49:55;;;;;;;;;;;21.10;53.70;;;;;;5073015;28;19934;-30
2023/06/10 02:52:21;;;;;;;;;;;21.20;53.80;;;;;;5074248;28;19923;-31
2023/06/10 02:54:46;;;;;;;;;;;21.10;53.90;;;;;;5074419;28;19951;-28
2023/06/10 02:57:14;;;;;;;;;;;21.10;53.90;;;;;;5074376;28;20329;-28
2023/06/10 02:59:40;;;;;;;;;;;21.10;54.00;;;;;;5074549;28;20124;-25
2023/06/10 03:02:05;;;;;;;;;;;21.10;54.40;;;;;;5072879;28;19923;-30
2023/06/10 03:04:31;;;;;;;;;;;21.00;54.40;;;;;;5074308;28;19999;-30
2023/06/10 03:06:56;;;;;;;;;;;21.00;54.50;;;;;;5073841;28;19966;-28
2023/06/10 03:09:22;;;;;;;;;;;21.00;54.60;;;;;;5074265;28;19912;-32
2023/06/10 03:11:47;;;;;;;;;;;20.90;54.70;;;;;;5074063;28;19912;-33
2023/06/10 03:14:13;;;;;;;;;;;20.90;55.00;;;;;;5073744;28;19940;-38
2023/06/10 03:16:40;;;;;;;;;;;20.90;55.20;;;;;;5073829;28;19913;-28
2023/06/10 03:19:06;;;;;;;;;;;20.90;55.40;;;;;;5073885;28;19986;-30
2023/06/10 03:21:31;;;;;;;;;;;20.80;55.40;;;;;;5073770;28;19959;-31
2023/06/10 03:23:57;;;;;;;;;;;20.80;55.40;;;;;;5074000;28;20322;-29
2023/06/10 03:26:22;;;;;;;;;;;20.80;55.50;;;;;;5073903;28;20224;-28
2023/06/10 03:28:48;;;;;;;;;;;20.80;55.60;;;;;;5073711;28;19931;-33
2023/06/10 03:31:16;;;;;;;;;;;20.70;55.70;;;;;;5073499;28;19916;-32
2023/06/10 03:33:42;;;;;;;;;;;20.70;55.90;;;;;;5073339;28;20007;-30
2023/06/10 03:36:07;;;;;;;;;;;20.70;55.80;;;;;;5073726;28;20351;-31
2023/06/10 03:38:33;;;;;;;;;;;20.70;56.00;;;;;;5073346;28;20014;-27
2023/06/10 03:40:58;;;;;;;;;;;20.60;56.00;;;;;;5073082;28;20371;-30
2023/06/10 03:43:24;;;;;;;;;;;20.60;56.10;;;;;;5073169;28;20007;-38
2023/06/10 03:45:49;;;;;;;;;;;20.60;56.00;;;;;;5073084;28;19919;-31
2023/06/10 03:48:15;;;;;;;;;;;20.60;56.10;;;;;;5073120;28;19909;-28
2023/06/10 03:50:40;;;;;;;;;;;20.60;56.10;;;;;;5073106;28;19917;-30
2023/06/10 03:53:06;;;;;;;;;;;20.50;56.20;;;;;;5073317;28;19916;-29
2023/06/10 03:55:31;;;;;;;;;;;20.50;56.20;;;;;;5072923;28;19970;-31
2023/06/10 03:57:57;;;;;;;;;;;20.50;56.40;;;;;;5073048;28;20324;-30
2023/06/10 04:00:23;;;;;;;;;;;20.50;56.40;;;;;;5072795;28;20390;-27
2023/06/10 04:02:51;;;;;;;;;;;20.50;56.50;;;;;;5072666;28;19908;-30
2023/06/10 04:05:17;;;;;;;;;;;20.50;56.60;;;;;;5072742;28;19927;-28
2023/06/10 04:07:43;;;;;;;;;;;20.50;56.60;;;;;;5073159;28;20004;-28
2023/06/10 04:10:09;;;;;;;;;;;20.50;56.80;;;;;;5073270;28;19931;-31
2023/06/10 04:12:35;;;;;;;;;;;20.40;57.00;;;;;;5071401;28;19908;-27
2023/06/10 04:15:01;;;;;;;;;;;20.40;57.00;;;;;;5072683;28;19936;-28
2023/06/10 04:17:27;;;;;;;;;;;20.40;57.10;;;;;;5072744;28;19909;-29
2023/06/10 04:19:54;;;;;;;;;;;20.40;57.10;;;;;;5072247;28;20338;-26
2023/06/10 04:22:20;;;;;;;;;;;20.40;57.10;;;;;;5072790;28;19919;-32
2023/06/10 04:24:45;;;;;;;;;;;20.40;57.20;;;;;;5072623;28;20364;-28
2023/06/10 04:27:11;;;;;;;;;;;20.40;57.20;;;;;;5071258;28;20372;-29
2023/06/10 04:29:36;;;;;;;;;;;20.40;57.20;;;;;;5072627;28;19916;-33
2023/06/10 04:32:02;;;;;;;;;;;20.40;57.30;;;;;;5072579;28;19908;-33
2023/06/10 04:34:28;;;;;;;;;;;20.40;57.90;;;;;;5072433;28;19908;-29
2023/06/10 04:36:53;;;;;;;;;;;20.40;57.30;;;;;;5072319;28;20066;-27
2023/06/10 04:39:19;;;;;;;;;;;20.40;57.30;;;;;;5072407;28;19908;-33
2023/06/10 04:41:45;;;;;;;;;;;20.40;57.50;;;;;;5072217;28;20356;-30
2023/06/10 04:44:11;;;;;;;;;;;20.40;57.30;;;;;;5072320;28;20007;-37
2023/06/10 04:46:37;;;;;;;;;;;20.40;57.20;;;;;;5072228;28;19981;-32
2023/06/10 04:49:02;;;;;;;;;;;20.40;57.20;;;;;;5072060;28;20351;-29
2023/06/10 04:51:28;;;;;;;;;;;20.40;57.30;;;;;;5072268;28;19915;-36
2023/06/10 04:53:53;;;;;;;;;;;20.40;57.30;;;;;;5072308;28;19951;-35
2023/06/10 04:56:20;;;;;;;;;;;20.50;57.40;;;;;;5072084;28;19909;-28
2023/06/10 04:58:45;;;;;;;;;;;20.50;57.40;;;;;;5072027;28;19920;-28
2023/06/10 05:01:11;;;;;;;;;;;20.50;57.50;;;;;;5072010;28;20291;-31
2023/06/10 05:03:36;;;;;;;;;;;20.50;57.40;;;;;;5072029;28;19999;-29
2023/06/10 05:06:02;;;;;;;;;;;20.50;57.90;;;;;;5072297;28;19920;-35
2023/06/10 05:08:27;;;;;;;;;;;20.50;58.00;;;;;;5072155;28;19961;-30
2023/06/10 05:10:53;;;;;;;;;;;20.50;57.90;;;;;;5072019;28;20367;-28
2023/06/10 05:13:18;;;;;;;;;;;20.50;57.90;;;;;;5072022;28;19963;-30
2023/06/10 05:15:44;;;;;;;;;;;20.50;57.90;;;;;;5071895;28;20359;-29
2023/06/10 05:18:12;;;;;;;;;;;20.50;57.80;;;;;;5071820;28;20406;-32
2023/06/10 05:20:38;;;;;;;;;;;20.50;57.80;;;;;;5072156;28;20424;-32
2023/06/10 05:23:03;;;;;;;;;;;20.50;57.80;;;;;;5071800;28;19909;-34
2023/06/10 05:25:32;;;;;;;;;;;20.50;57.80;;;;;;5072013;28;19909;-28
2023/06/10 05:27:58;;;;;;;;;;;20.50;57.90;;;;;;5071974;28;19914;-32
2023/06/10 05:30:24;;;;;;;;;;;20.50;57.80;;;;;;5071823;28;20287;-28
2023/06/10 05:32:51;;;;;;;;;;;20.60;58.00;;;;;;5075208;28;20004;-31
2023/06/10 05:35:17;;;;;;;;;;;20.60;57.80;;;;;;5075775;28;20393;-27
2023/06/10 05:37:42;;;;;;;;;;;20.60;57.80;;;;;;5075740;28;19908;-31
2023/06/10 05:40:08;;;;;;;;;;;20.70;58.00;;;;;;5075480;28;19909;-36
2023/06/10 05:42:34;;;;;;;;;;;20.70;58.00;;;;;;5075548;28;19912;-32
2023/06/10 05:44:59;;;;;;;;;;;20.70;57.90;;;;;;5075467;28;20360;-32
2023/06/10 05:47:25;;;;;;;;;;;20.70;57.90;;;;;;5075442;28;19909;-30
2023/06/10 05:49:51;;;;;;;;;;;20.80;57.80;;;;;;5075274;28;19920;-33
2023/06/10 05:52:17;;;;;;;;;;;20.80;58.60;;;;;;5075423;28;19909;-32
2023/06/10 05:54:43;;;;;;;;;;;20.80;57.90;;;;;;5075206;28;19925;-35
2023/06/10 05:57:08;;;;;;;;;;;20.80;57.80;;;;;;5075330;28;20209;-32
2023/06/10 05:59:33;;;;;;;;;;;20.90;57.80;;;;;;5075163;28;19909;-31
2023/06/10 06:01:59;;;;;;;;;;;20.90;57.70;;;;;;5074946;28;19920;-28
2023/06/10 06:04:25;;;;;;;;;;;21.00;57.80;;;;;;5074971;28;19922;-33
2023/06/10 06:06:50;;;;;;;;;;;21.00;57.70;;;;;;5075044;28;20283;-32
2023/06/10 06:09:15;;;;;;;;;;;21.10;57.60;;;;;;5074943;28;19958;-29
2023/06/10 06:11:41;;;;;;;;;;;21.10;57.50;;;;;;5074895;28;19912;-29
2023/06/10 06:14:06;;;;;;;;;;;21.10;57.40;;;;;;5074779;28;19909;-28
2023/06/10 06:16:32;;;;;;;;;;;21.20;57.40;;;;;;5074868;28;19955;-38
2023/06/10 06:18:58;;;;;;;;;;;21.30;57.40;;;;;;5074872;28;19952;-29
2023/06/10 06:21:23;;;;;;;;;;;21.30;57.40;;;;;;5074717;28;19912;-30
2023/06/10 06:23:49;;;;;;;;;;;21.30;57.30;;;;;;5074756;28;19960;-35
2023/06/10 06:26:14;;;;;;;;;;;21.40;57.30;;;;;;5074670;28;20372;-31
2023/06/10 06:28:40;;;;;;;;;;;21.40;57.20;;;;;;5074758;28;19908;-32
2023/06/10 06:31:06;;;;;;;;;;;21.40;57.10;;;;;;5074632;28;20380;-28
2023/06/10 06:33:31;;;;;;;;;;;21.50;57.00;;;;;;5073066;28;19909;-30
2023/06/10 06:35:57;;;;;;;;;;;21.60;57.00;;;;;;5074468;28;19915;-31
2023/06/10 06:38:23;;;;;;;;;;;21.60;57.00;;;;;;5074377;28;19953;-29
2023/06/10 06:40:48;;;;;;;;;;;21.60;56.80;;;;;;5074414;28;20009;-33
2023/06/10 06:43:13;;;;;;;;;;;21.70;57.10;;;;;;5072581;28;20283;-36
2023/06/10 06:45:39;;;;;;;;;;;21.70;56.80;;;;;;5074496;28;19975;-33
2023/06/10 06:48:05;;;;;;;;;;;21.80;56.80;;;;;;5074226;28;20352;-32
2023/06/10 06:50:30;;;;;;;;;;;21.90;56.70;;;;;;5074277;28;19936;-32
2023/06/10 06:52:56;;;;;;;;;;;21.90;56.70;;;;;;5074290;28;19908;-28
2023/06/10 06:55:21;;;;;;;;;;;21.90;56.60;;;;;;5072874;28;20350;-27
2023/06/10 06:57:47;;;;;;;;;;;21.90;56.50;;;;;;5074176;28;19974;-27
2023/06/10 07:00:12;;;;;;;;;;;22.00;56.50;;;;;;5074013;28;19913;-32
2023/06/10 07:02:38;;;;;;;;;;;22.10;56.40;;;;;;5074163;28;19919;-27
2023/06/10 07:05:04;;;;;;;;;;;22.10;56.30;;;;;;5073819;28;19974;-34
2023/06/10 07:07:29;;;;;;;;;;;22.20;56.20;;;;;;5074220;28;19909;-32
2023/06/10 07:09:55;;;;;;;;;;;22.20;56.20;;;;;;5073750;28;19947;-28
2023/06/10 07:12:23;;;;;;;;;;;22.30;56.20;;;;;;5073928;28;20342;-31
2023/06/10 07:14:49;;;;;;;;;;;22.40;56.20;;;;;;5073847;28;19909;-29
2023/06/10 07:17:15;;;;;;;;;;;22.40;56.20;;;;;;5072381;28;19962;-33
2023/06/10 07:19:40;;;;;;;;;;;22.40;56.10;;;;;;5073864;28;19912;-31
2023/06/10 07:22:06;;;;;;;;;;;22.50;56.10;;;;;;5073659;28;19913;-28
2023/06/10 07:24:31;;;;;;;;;;;22.60;56.00;;;;;;5072261;28;19912;-26
2023/06/10 07:26:57;;;;;;;;;;;22.60;55.90;;;;;;5073609;28;19909;-29
2023/06/10 07:29:22;;;;;;;;;;;22.70;55.80;;;;;;5073565;28;20220;-30
2023/06/10 07:31:48;;;;;;;;;;;22.80;55.60;;;;;;5073489;28;19955;-30
2023/06/10 07:34:13;;;;;;;;;;;22.80;55.60;;;;;;5072063;28;19916;-30
2023/06/10 07:36:38;;;;;;;;;;;22.90;55.50;;;;;;5073518;28;19909;-31
2023/06/10 07:39:04;;;;;;;;;;;23.00;55.40;;;;;;5073403;28;19912;-28
2023/06/10 07:41:30;;;;;;;;;;;23.00;55.30;;;;;;5073291;28;19999;-30
2023/06/10 07:43:55;;;;;;;;;;;23.10;55.20;;;;;;5073126;28;19938;-28
2023/06/10 07:46:24;;;;;;;;;;;23.30;55.10;;;;;;5073298;28;20358;-31
2023/06/10 07:48:50;;;;;;;;;;;23.30;54.90;;;;;;5073372;28;20287;-31
2023/06/10 07:51:16;;;;;;;;;;;23.40;54.70;;;;;;5073099;28;19909;-29
2023/06/10 07:53:41;;;;;;;;;;;23.50;54.70;;;;;;5072455;28;19914;-44
2023/06/10 07:56:07;;;;;;;;;;;23.60;54.60;;;;;;5072836;28;19999;-30
2023/06/10 07:58:32;;;;;;;;;;;23.60;54.50;;;;;;5073038;28;19909;-29
2023/06/10 08:00:58;;;;;;;;;;;23.70;54.40;;;;;;5073019;28;19912;-34
2023/06/10 08:03:23;;;;;;;;;;;23.70;54.30;;;;;;5072799;28;19915;-31
2023/06/10 08:05:49;;;;;;;;;;;23.80;54.30;;;;;;5072699;28;19920;-30
2023/06/10 08:08:14;;;;;;;;;;;23.90;54.20;;;;;;5072712;28;19909;-31
2023/06/10 08:10:40;;;;;;;;;;;23.90;53.90;;;;;;5071600;28;19912;-32
2023/06/10 08:13:06;;;;;;;;;;;24.00;54.00;;;;;;5072775;28;19991;-26
2023/06/10 08:15:31;;;;;;;;;;;24.10;53.90;;;;;;5072845;28;19909;-28
2023/06/10 08:17:57;;;;;;;;;;;24.10;53.70;;;;;;5073014;28;20007;-31
2023/06/10 08:20:22;;;;;;;;;;;24.20;53.60;;;;;;5072464;28;19909;-27
2023/06/10 08:22:48;;;;;;;;;;;24.30;53.40;;;;;;5072569;28;20015;-31
2023/06/10 08:25:13;;;;;;;;;;;24.30;53.30;;;;;;5072506;28;19909;-31
2023/06/10 08:27:39;;;;;;;;;;;24.40;53.30;;;;;;5072481;28;19996;-31
2023/06/10 08:30:05;;;;;;;;;;;24.40;53.00;;;;;;5072206;28;19939;-31
2023/06/10 08:32:30;;;;;;;;;;;24.50;53.10;;;;;;5072246;28;20135;-33
2023/06/10 08:34:55;;;;;;;;;;;24.50;53.00;;;;;;5072041;28;19909;-32
2023/06/10 08:37:21;;;;;;;;;;;24.60;52.90;;;;;;5072276;28;19909;-28
2023/06/10 08:39:47;;;;;;;;;;;24.70;52.90;;;;;;5072561;28;19957;-30
2023/06/10 08:42:33;;;;;;;;;;;24.70;52.80;;;;;;5072106;28;20303;-33
2023/06/10 08:45:00;;;;;;;;;;;24.80;52.60;;;;;;5072139;28;19909;-31
2023/06/10 08:47:29;;;;;;;;;;;24.90;52.40;;;;;;5072093;28;19961;-29
2023/06/10 08:49:56;;;;;;;;;;;24.90;52.30;;;;;;5070551;28;19909;-30
2023/06/10 08:52:23;;;;;;;;;;;24.90;52.40;;;;;;5072542;28;19915;-28
2023/06/10 08:54:57;;;;;;;;;;;24.90;52.20;;;;;;5072052;28;19995;-28
2023/06/10 08:57:22;;;;;;;;;;;25.00;52.00;;;;;;5072125;28;19908;-34
2023/06/10 08:59:48;;;;;;;;;;;25.10;52.00;;;;;;5071749;28;19909;-29
2023/06/10 09:02:14;;;;;;;;;;;25.20;51.90;;;;;;5071843;28;19912;-32
2023/06/10 09:04:42;;;;;;;;;;;25.20;51.90;;;;;;5071896;28;19966;-35
2023/06/10 09:07:08;;;;;;;;;;;25.30;51.90;;;;;;5071804;28;19908;-32
2023/06/10 09:09:34;;;;;;;;;;;25.40;51.70;;;;;;5071966;28;19931;-29
2023/06/10 09:12:00;;;;;;;;;;;25.40;51.60;;;;;;5071987;28;19966;-31
2023/06/10 09:14:25;;;;;;;;;;;25.50;51.50;;;;;;5071938;28;19913;-28
2023/06/10 09:16:51;;;;;;;;;;;25.50;51.40;;;;;;5071937;28;19908;-31
2023/06/10 09:19:16;;;;;;;;;;;25.60;51.30;;;;;;5071951;28;19916;-29
2023/06/10 09:21:42;;;;;;;;;;;25.60;51.30;;;;;;5071957;28;19913;-27
2023/06/10 09:24:07;;;;;;;;;;;25.70;51.30;;;;;;5071813;28;20379;-31
2023/06/10 09:26:33;;;;;;;;;;;25.80;51.30;;;;;;5072144;28;19996;-27
2023/06/10 09:29:05;;;;;;;;;;;25.90;51.10;;;;;;5071721;28;19916;-31
2023/06/10 09:31:34;;;;;;;;;;;25.90;51.00;;;;;;5072125;28;19946;-27
2023/06/10 09:34:09;;;;;;;;;;;26.00;50.90;;;;;;5070521;28;19948;-34
2023/06/10 09:36:36;;;;;;;;;;;26.00;50.80;;;;;;5071850;28;19915;-27
2023/06/10 09:39:01;;;;;;;;;;;26.10;50.80;;;;;;5071746;28;19912;-29
2023/06/10 09:41:39;;;;;;;;;;;26.10;50.60;;;;;;5071584;28;19912;-34
2023/06/10 09:44:15;;;;;;;;;;;26.30;50.60;;;;;;5071842;28;20368;-31
2023/06/10 09:46:41;;;;;;;;;;;26.30;50.40;;;;;;5071895;28;19912;-32
2023/06/10 09:49:06;;;;;;;;;;;26.40;50.30;;;;;;5071698;28;19915;-31
2023/06/10 09:51:32;;;;;;;;;;;26.50;50.10;;;;;;5071980;28;19932;-27
2023/06/10 09:53:58;;;;;;;;;;;26.50;49.80;;;;;;5071687;28;19909;-30
2023/06/10 09:56:34;;;;;;;;;;;26.60;49.80;;;;;;5071748;28;19980;-32
2023/06/10 09:58:59;;;;;;;;;;;26.60;49.60;;;;;;5071601;28;19909;-30
2023/06/10 10:01:25;;;;;;;;;;;26.70;49.50;;;;;;5071522;28;19913;-32
2023/06/10 10:03:50;;;;;;;;;;;26.70;49.60;;;;;;5071589;28;19913;-30
2023/06/10 10:06:16;;;;;;;;;;;26.90;49.40;;;;;;5071474;28;19920;-32
2023/06/10 10:08:43;;;;;;;;;;;27.00;48.20;;;;;;5071639;28;19951;-33
2023/06/10 10:11:09;;;;;;;;;;;27.00;47.90;;;;;;5070243;28;19915;-28
2023/06/10 10:13:35;;;;;;;;;;;27.00;48.30;;;;;;5071689;28;20336;-29
2023/06/10 10:16:06;;;;;;;;;;;27.00;48.50;;;;;;5070002;28;20016;-34
2023/06/10 10:18:32;;;;;;;;;;;27.00;48.20;;;;;;5074115;28;19962;-29
2023/06/10 10:21:01;;;;;;;;;;;27.10;48.10;;;;;;5075043;28;19920;-31
2023/06/10 10:23:36;;;;;;;;;;;27.20;47.70;;;;;;5075028;28;19921;-31
2023/06/10 10:26:05;;;;;;;;;;;27.30;47.60;;;;;;5073602;28;19908;-32
2023/06/10 10:28:36;;;;;;;;;;;27.40;47.60;;;;;;5075020;28;20003;-33
2023/06/10 10:31:05;;;;;;;;;;;27.40;47.20;;;;;;5074729;28;19909;-28
2023/06/10 10:33:30;;;;;;;;;;;27.50;47.10;;;;;;5074986;28;19916;-28
2023/06/10 10:35:56;;;;;;;;;;;27.60;47.20;;;;;;5074755;28;19915;-26
2023/06/10 10:38:21;;;;;;;;;;;27.60;47.00;;;;;;5074898;28;19908;-30
2023/06/10 10:40:47;;;;;;;;;;;27.70;46.80;;;;;;5074579;28;19959;-33
2023/06/10 10:43:13;;;;;;;;;;;27.80;46.20;;;;;;5074636;28;19916;-27
2023/06/10 10:45:38;;;;;;;;;;;27.80;46.20;;;;;;5074784;28;20360;-32
2023/06/10 10:48:11;;;;;;;;;;;27.90;45.60;;;;;;5073149;28;19954;-26
2023/06/10 10:50:37;;;;;;;;;;;27.90;45.60;;;;;;5073148;28;19912;-28
2023/06/10 10:53:03;;;;;;;;;;;28.00;44.50;;;;;;5074529;28;20003;-27
2023/06/10 10:55:28;;;;;;;;;;;28.00;44.60;;;;;;5074585;28;19915;-27
2023/06/10 10:57:54;;;;;;;;;;;28.00;44.20;;;;;;5074466;28;20155;-29
2023/06/10 11:00:33;;;;;;;;;;;28.10;44.10;;;;;;5074484;28;19944;-30
2023/06/10 11:03:06;;;;;;;;;;;28.10;44.30;;;;;;5074364;28;20367;-30
2023/06/10 11:05:32;;;;;;;;;;;28.10;43.80;;;;;;5074394;28;19920;-27
2023/06/10 11:07:57;;;;;;;;;;;28.20;44.10;;;;;;5074263;28;19962;-28
2023/06/10 11:10:33;;;;;;;;;;;28.30;43.90;;;;;;5074115;28;19943;-32
2023/06/10 11:12:59;;;;;;;;;;;28.40;43.20;;;;;;5074152;28;19955;-27
2023/06/10 11:15:26;;;;;;;;;;;28.40;43.00;;;;;;5073945;28;20396;-29
2023/06/10 11:18:11;;;;;;;;;;;28.50;43.10;;;;;;5074114;28;20058;-30
2023/06/10 11:20:42;;;;;;;;;;;28.50;43.30;;;;;;5073939;28;20295;-31
2023/06/10 11:23:07;;;;;;;;;;;28.60;43.10;;;;;;5073908;28;20360;-29
2023/06/10 11:25:40;;;;;;;;;;;28.70;43.10;;;;;;5073946;28;19958;-29
2023/06/10 11:28:21;;;;;;;;;;;28.70;42.40;;;;;;5073552;28;20197;-31
2023/06/10 11:30:56;;;;;;;;;;;28.70;42.00;;;;;;5073203;28;19909;-26
2023/06/10 11:33:22;;;;;;;;;;;28.80;41.80;;;;;;5073917;28;19915;-29
2023/06/10 11:35:48;;;;;;;;;;;28.80;42.00;;;;;;5072438;28;19908;-26
2023/06/10 11:38:13;;;;;;;;;;;29.00;42.00;;;;;;5073670;28;19973;-29
2023/06/10 11:40:39;;;;;;;;;;;29.10;42.00;;;;;;5073871;28;19908;-33
2023/06/10 11:43:05;;;;;;;;;;;29.20;42.20;;;;;;5073660;28;19908;-26
2023/06/10 11:45:30;;;;;;;;;;;29.30;41.80;;;;;;5073599;28;19935;-27
2023/06/10 11:47:59;;;;;;;;;;;29.40;41.90;;;;;;5073548;28;20344;-28
2023/06/10 11:50:32;;;;;;;;;;;29.50;42.00;;;;;;5073558;28;20124;-30
2023/06/10 11:52:58;;;;;;;;;;;29.50;41.40;;;;;;5073516;28;20002;-31
2023/06/10 11:55:43;;;;;;;;;;;29.60;41.50;;;;;;5073353;28;20013;-28
2023/06/10 11:58:19;;;;;;;;;;;29.60;40.60;;;;;;5072737;28;19959;-32
2023/06/10 12:00:46;;;;;;;;;;;29.60;40.80;;;;;;5073432;28;19916;-29
2023/06/10 12:03:11;;;;;;;;;;;29.60;40.70;;;;;;5071837;28;20218;-27
2023/06/10 12:05:36;;;;;;;;;;;29.60;40.90;;;;;;5073068;28;19928;-28
2023/06/10 12:08:09;;;;;;;;;;;29.70;40.90;;;;;;5073191;28;19915;-27
2023/06/10 12:10:39;;;;;;;;;;;29.70;40.40;;;;;;5073061;28;20008;-31
2023/06/10 12:13:04;;;;;;;;;;;29.80;40.60;;;;;;5071694;28;20364;-30
2023/06/10 12:15:30;;;;;;;;;;;29.90;40.50;;;;;;5073036;28;20095;-27
2023/06/10 12:17:56;;;;;;;;;;;29.90;40.20;;;;;;5072914;28;19908;-26
2023/06/10 12:20:28;;;;;;;;;;;30.00;40.20;;;;;;5072914;28;19962;-29
2023/06/10 12:22:54;;;;;;;;;;;30.00;40.10;;;;;;5072765;28;19912;-29
2023/06/10 12:25:27;;;;;;;;;;;30.10;38.90;;;;;;5072720;28;19909;-27
2023/06/10 12:27:53;;;;;;;;;;;30.10;39.50;;;;;;5072777;28;19943;-29
2023/06/10 12:30:19;;;;;;;;;;;30.10;39.00;;;;;;5073008;28;19912;-29
2023/06/10 12:32:46;;;;;;;;;;;30.10;39.40;;;;;;5072479;28;20056;-28
2023/06/10 12:35:12;;;;;;;;;;;30.20;39.70;;;;;;5072556;28;19952;-29
2023/06/10 12:37:38;;;;;;;;;;;30.50;39.90;;;;;;5072420;28;19932;-35
2023/06/10 12:40:06;;;;;;;;;;;30.60;39.70;;;;;;5072007;28;20376;-33
2023/06/10 12:42:34;;;;;;;;;;;30.80;40.60;;;;;;5072270;28;20007;-30
2023/06/10 12:45:02;;;;;;;;;;;30.90;39.90;;;;;;5072289;28;19908;-30
2023/06/10 12:47:32;;;;;;;;;;;31.10;40.00;;;;;;5072437;28;19961;-33
2023/06/10 12:49:58;;;;;;;;;;;31.20;40.10;;;;;;5072708;28;20533;-26
2023/06/10 12:52:24;;;;;;;;;;;31.40;40.70;;;;;;5072344;28;19908;-29
2023/06/10 12:54:50;;;;;;;;;;;31.70;40.20;;;;;;5071047;28;19959;-31
2023/06/10 12:57:16;;;;;;;;;;;31.80;39.90;;;;;;5072171;28;19909;-27
2023/06/10 12:59:45;;;;;;;;;;;31.90;40.00;;;;;;5072570;28;19909;-31
2023/06/10 13:02:13;;;;;;;;;;;32.00;39.90;;;;;;5072033;28;19912;-28
2023/06/10 13:04:39;;;;;;;;;;;32.10;39.40;;;;;;5072435;28;20412;-30
2023/06/10 13:07:04;;;;;;;;;;;32.10;39.20;;;;;;5072165;28;20372;-27
2023/06/10 13:09:30;;;;;;;;;;;32.20;39.20;;;;;;5070882;28;19948;-28
2023/06/10 13:11:55;;;;;;;;;;;32.20;39.10;;;;;;5072128;28;19955;-29
2023/06/10 13:14:21;;;;;;;;;;;32.30;39.10;;;;;;5072149;28;20375;-27
2023/06/10 13:16:47;;;;;;;;;;;32.40;39.20;;;;;;5072100;28;19962;-30
2023/06/10 13:19:12;;;;;;;;;;;32.50;39.10;;;;;;5072127;28;19913;-34
2023/06/10 13:21:38;;;;;;;;;;;32.60;39.10;;;;;;5072242;28;19939;-27
2023/06/10 13:24:04;;;;;;;;;;;32.70;39.20;;;;;;5072227;28;19953;-29
2023/06/10 13:26:29;;;;;;;;;;;32.80;39.20;;;;;;5072088;28;19916;-26
2023/06/10 13:28:55;;;;;;;;;;;32.90;39.10;;;;;;5071936;28;19978;-27
2023/06/10 13:31:20;;;;;;;;;;;33.00;39.70;;;;;;5071948;28;20329;-28
2023/06/10 13:33:46;;;;;;;;;;;33.00;39.00;;;;;;5071917;28;19908;-28
2023/06/10 13:36:12;;;;;;;;;;;33.10;39.00;;;;;;5071877;28;19908;-27
2023/06/10 13:38:38;;;;;;;;;;;33.20;38.80;;;;;;5071862;28;19965;-29
2023/06/10 13:41:03;;;;;;;;;;;33.20;38.70;;;;;;5071679;28;19947;-33
2023/06/10 13:43:29;;;;;;;;;;;33.20;38.10;;;;;;5071825;28;20253;-30
2023/06/10 13:45:54;;;;;;;;;;;33.10;37.70;;;;;;5071777;28;19915;-28
2023/06/10 13:48:20;;;;;;;;;;;33.20;38.10;;;;;;5071814;28;19912;-28
2023/06/10 13:50:45;;;;;;;;;;;33.30;38.10;;;;;;5071729;28;19909;-29
2023/06/10 13:53:11;;;;;;;;;;;33.30;38.20;;;;;;5074011;28;19940;-26
2023/06/10 13:55:37;;;;;;;;;;;33.50;38.30;;;;;;5075659;28;20431;-33
2023/06/10 13:58:02;;;;;;;;;;;33.60;37.60;;;;;;5075570;28;20356;-33
2023/06/10 14:00:28;;;;;;;;;;;33.50;37.40;;;;;;5075453;28;19908;-30
2023/06/10 14:02:53;;;;;;;;;;;33.50;37.30;;;;;;5074326;28;20287;-31
2023/06/10 14:05:19;;;;;;;;;;;33.50;36.60;;;;;;5075260;28;20003;-29
2023/06/10 14:07:44;;;;;;;;;;;33.50;36.90;;;;;;5075367;28;20429;-27
2023/06/10 14:10:10;;;;;;;;;;;33.50;37.20;;;;;;5075420;28;19908;-30
2023/06/10 14:12:35;;;;;;;;;;;33.60;37.80;;;;;;5075325;28;20288;-28